Time;durP1;ratioP1;P1;durP2;ratioP2;P2;SDS_P1;SDS_P2;PMS_P1;PMS_P2;Temp;Humidity;BMP_temperature;BMP_pressure;BME280_temperature;BME280_humidity;BME280_pressure;Samples;Min_cycle;Max_cycle;Signal;HPM_P1;HPM_P2
2022/08/18 00:00:40;;;;;;;55.53;49.70;;;;;;;15.99;100.00;100242.59;4951630;28;20188;-71
2022/08/18 00:03:07;;;;;;;52.88;47.17;;;;;;;15.97;100.00;100250.69;4952893;28;20046;-71
2022/08/18 00:05:33;;;;;;;49.05;43.90;;;;;;;15.91;100.00;100256.44;4944602;28;20028;-71
2022/08/18 00:07:58;;;;;;;46.45;41.47;;;;;;;15.91;100.00;100251.16;5010459;28;20413;-71
2022/08/18 00:10:24;;;;;;;46.55;41.60;;;;;;;15.93;100.00;100259.81;4950701;28;20032;-71
2022/08/18 00:12:50;;;;;;;99.40;78.88;;;;;;;15.70;100.00;100216.47;5018100;28;20108;-71
2022/08/18 00:15:17;;;;;;;107.05;91.82;;;;;;;15.95;100.00;100249.97;4965627;28;20485;-71
2022/08/18 00:17:43;;;;;;;93.65;75.63;;;;;;;16.15;100.00;100264.38;4950655;28;20102;-71
2022/08/18 00:20:12;;;;;;;87.35;74.68;;;;;;;16.19;100.00;100261.34;4951582;29;20281;-71
2022/08/18 00:22:38;;;;;;;83.47;74.22;;;;;;;16.32;100.00;100272.72;4950198;28;20100;-71
2022/08/18 00:25:04;;;;;;;113.32;92.53;;;;;;;16.11;100.00;100231.09;4951800;28;20031;-71
2022/08/18 00:27:30;;;;;;;124.10;98.68;;;;;;;16.43;100.00;100276.34;4951468;29;20031;-71
2022/08/18 00:30:01;;;;;;;144.27;100.00;;;;;;;16.52;100.00;100280.97;4949289;28;20370;-71
2022/08/18 00:32:32;;;;;;;119.40;98.63;;;;;;;16.51;100.00;100287.25;4948227;28;20049;-71
2022/08/18 00:35:07;;;;;;;123.15;95.38;;;;;;;16.56;100.00;100285.13;4952115;28;20027;-71
2022/08/18 00:37:33;;;;;;;113.28;88.55;;;;;;;16.55;100.00;100283.41;4948432;28;20023;-71
2022/08/18 00:40:00;;;;;;;122.78;100.20;;;;;;;16.53;100.00;100277.34;4951898;28;20367;-72
2022/08/18 00:42:27;;;;;;;131.75;97.15;;;;;;;16.57;100.00;100282.34;4951269;29;20037;-71
2022/08/18 00:44:53;;;;;;;123.63;93.57;;;;;;;16.56;100.00;100290.44;4951806;28;20027;-71
2022/08/18 00:47:19;;;;;;;145.52;98.72;;;;;;;16.59;100.00;100287.53;4944396;28;20180;-72
2022/08/18 00:49:45;;;;;;;130.18;95.50;;;;;;;16.58;100.00;100285.84;4936348;28;20461;-71
2022/08/18 00:52:12;;;;;;;154.57;100.05;;;;;;;16.41;100.00;100254.41;4921401;28;20062;-72
2022/08/18 00:54:40;;;;;;;184.70;105.55;;;;;;;16.50;100.00;100281.09;4966541;28;20024;-72
2022/08/18 00:57:07;;;;;;;160.10;101.75;;;;;;;16.47;100.00;100275.16;4952738;28;20088;-72
2022/08/18 00:59:36;;;;;;;197.60;108.93;;;;;;;16.44;100.00;100276.25;4954937;28;20035;-73
2022/08/18 01:02:04;;;;;;;182.30;116.35;;;;;;;16.39;100.00;100272.28;4950950;28;20040;-72
2022/08/18 01:04:45;;;;;;;147.10;104.15;;;;;;;16.38;100.00;100276.72;4951102;28;20038;-71
2022/08/18 01:07:19;;;;;;;161.48;104.47;;;;;;;16.42;100.00;100287.94;4944040;28;20111;-71
2022/08/18 01:09:46;;;;;;;137.48;100.13;;;;;;;16.42;100.00;100274.69;4953019;28;20246;-71
2022/08/18 01:12:11;;;;;;;155.90;106.25;;;;;;;16.48;100.00;100284.81;4947352;28;20032;-71
2022/08/18 01:14:37;;;;;;;133.35;99.18;;;;;;;16.53;100.00;100280.84;4952222;28;20050;-71
2022/08/18 01:22:48;;;;;;;125.33;97.87;;;;;;;16.52;100.00;100283.63;4947674;28;20278;-70
2022/08/18 01:28:02;;;;;;;185.68;110.90;;;;;;;16.52;100.00;100270.38;4940027;28;20042;-70
2022/08/18 01:30:29;;;;;;;179.02;101.15;;;;;;;16.61;100.00;100283.81;4943005;28;20062;-71
2022/08/18 01:32:55;;;;;;;141.05;101.72;;;;;;;16.61;100.00;100299.72;4954265;29;20114;-71
2022/08/18 01:35:24;;;;;;;158.73;112.47;;;;;;;16.59;100.00;100291.03;4953896;28;20035;-71
2022/08/18 01:37:50;;;;;;;151.43;103.47;;;;;;;16.57;100.00;100286.78;4930279;29;20074;-72
2022/08/18 01:40:16;;;;;;;153.43;108.32;;;;;;;16.39;100.00;100261.66;4951663;28;20474;-71
2022/08/18 01:42:44;;;;;;;164.55;103.15;;;;;;;16.67;100.00;100298.38;4949748;28;20023;-71
2022/08/18 01:45:12;;;;;;;145.82;103.03;;;;;;;16.68;100.00;100294.78;4950873;28;20128;-71
2022/08/18 01:47:39;;;;;;;156.95;109.35;;;;;;;16.47;100.00;100251.28;4952260;28;20023;-71
2022/08/18 01:50:06;;;;;;;139.77;107.70;;;;;;;16.76;100.00;100303.00;4954200;28;20035;-71
2022/08/18 01:52:34;;;;;;;142.55;105.95;;;;;;;16.76;100.00;100306.47;4937432;28;20035;-71
2022/08/18 01:55:00;;;;;;;150.18;109.65;;;;;;;16.79;100.00;100305.44;4954028;28;20385;-71
2022/08/18 01:57:25;;;;;;;139.70;108.93;;;;;;;16.82;100.00;100302.53;4954308;28;20023;-71
2022/08/18 01:59:51;;;;;;;159.30;111.18;;;;;;;16.82;100.00;100307.84;4953668;28;20027;-71
2022/08/18 02:02:23;;;;;;;152.05;105.88;;;;;;;16.91;100.00;100304.47;4953961;28;20040;-71
2022/08/18 02:04:51;;;;;;;141.63;101.35;;;;;;;16.75;100.00;100283.59;4935241;28;20043;-71
2022/08/18 02:07:16;;;;;;;120.53;94.63;;;;;;;16.80;100.00;100299.97;4942020;28;20078;-71
2022/08/18 02:09:43;;;;;;;138.65;101.15;;;;;;;16.81;100.00;100303.47;4953393;28;20066;-72
2022/08/18 02:12:08;;;;;;;127.95;97.88;;;;;;;16.79;100.00;100300.13;4948247;29;20024;-71
2022/08/18 02:14:34;;;;;;;148.10;103.28;;;;;;;16.86;100.00;100314.59;4944694;28;20045;-71
2022/08/18 02:17:01;;;;;;;130.80;97.70;;;;;;;16.54;100.00;100266.63;4953360;28;20031;-71
2022/08/18 02:19:26;;;;;;;133.30;98.18;;;;;;;16.73;100.00;100296.09;4952975;28;20027;-71
2022/08/18 02:21:52;;;;;;;124.35;99.88;;;;;;;16.84;100.00;100312.06;4954031;29;20085;-71
2022/08/18 02:24:18;;;;;;;125.95;98.07;;;;;;;16.82;100.00;100311.34;4951823;28;20118;-71
2022/08/18 02:26:43;;;;;;;112.03;90.25;;;;;;;16.88;100.00;100319.78;4952878;28;20433;-71
2022/08/18 02:29:09;;;;;;;117.63;91.35;;;;;;;16.78;100.00;100306.38;4953406;28;20023;-71
2022/08/18 02:31:34;;;;;;;115.65;91.30;;;;;;;16.87;100.00;100316.28;4953752;28;20058;-72
2022/08/18 02:34:00;;;;;;;118.25;88.95;;;;;;;16.84;100.00;100316.50;4953589;28;20446;-72
2022/08/18 02:36:25;;;;;;;123.03;91.72;;;;;;;16.86;100.00;100318.06;4946965;28;20081;-72
2022/08/18 02:38:50;;;;;;;116.63;89.30;;;;;;;16.82;100.00;100313.16;4953237;28;20028;-71
2022/08/18 02:41:16;;;;;;;127.95;93.45;;;;;;;16.82;100.00;100307.84;4953309;29;20385;-71
2022/08/18 02:43:42;;;;;;;108.97;84.55;;;;;;;16.87;100.00;100316.28;4952853;28;20027;-71
2022/08/18 02:46:08;;;;;;;108.10;83.03;;;;;;;16.86;100.00;100319.91;4952410;28;20035;-71
2022/08/18 02:48:34;;;;;;;106.82;82.68;;;;;;;16.84;100.00;100316.50;4952395;28;20043;-71
2022/08/18 02:51:13;;;;;;;102.53;85.35;;;;;;;16.85;100.00;100319.06;4953172;28;20023;-71
2022/08/18 02:53:41;;;;;;;112.97;83.82;;;;;;;16.93;100.00;100325.59;4953062;28;20384;-71
2022/08/18 02:56:24;;;;;;;111.00;86.45;;;;;;;16.90;100.00;100316.03;4952636;28;20038;-71
2022/08/18 02:58:52;;;;;;;106.28;82.95;;;;;;;16.89;100.00;100319.66;4953255;28;20516;-71
2022/08/18 03:01:20;;;;;;;112.18;87.78;;;;;;;16.86;100.00;100320.72;4951898;28;20521;-71
2022/08/18 03:03:46;;;;;;;112.45;83.97;;;;;;;16.86;100.00;100311.94;4950451;28;20031;-71
2022/08/18 03:06:11;;;;;;;102.03;82.95;;;;;;;16.85;100.00;100307.59;4946152;28;20485;-71
2022/08/18 03:08:37;;;;;;;116.72;85.82;;;;;;;16.84;100.00;100311.22;4951825;28;20140;-71
2022/08/18 03:11:02;;;;;;;113.30;87.45;;;;;;;16.83;100.00;100301.56;4952059;28;20035;-71
2022/08/18 03:13:29;;;;;;;114.00;84.35;;;;;;;16.79;100.00;100293.00;4951789;29;20098;-71
2022/08/18 03:15:54;;;;;;;117.82;87.45;;;;;;;16.83;100.00;100290.97;4952030;28;20070;-71
2022/08/18 03:18:22;;;;;;;97.65;81.60;;;;;;;16.70;100.00;100266.31;4983791;28;20063;-71
2022/08/18 03:20:48;;;;;;;103.80;84.25;;;;;;;16.77;100.00;100279.00;4989604;28;20031;-71
2022/08/18 03:23:13;;;;;;;108.65;86.22;;;;;;;16.70;100.00;100271.63;4934771;28;20023;-71
2022/08/18 03:25:46;;;;;;;109.95;87.25;;;;;;;16.60;100.00;100260.03;4952282;28;20362;-71
2022/08/18 03:28:12;;;;;;;107.25;91.07;;;;;;;16.76;100.00;100269.34;4951782;28;20038;-71
2022/08/18 03:30:37;;;;;;;107.63;86.40;;;;;;;16.73;100.00;100271.38;4952038;28;20040;-71
2022/08/18 03:33:03;;;;;;;102.28;83.72;;;;;;;16.72;100.00;100272.38;4942642;28;20208;-71
2022/08/18 03:35:29;;;;;;;116.10;92.88;;;;;;;16.76;100.00;100265.84;4958404;28;20017;-71
2022/08/18 03:37:58;;;;;;;100.28;80.00;;;;;;;16.71;100.00;100268.84;4950976;28;20042;-71
2022/08/18 03:40:23;;;;;;;108.22;83.63;;;;;;;16.69;100.00;100262.84;4950454;28;20031;-71
2022/08/18 03:42:48;;;;;;;107.40;83.32;;;;;;;16.70;100.00;100261.00;4940521;28;20046;-71
2022/08/18 03:45:14;;;;;;;118.75;85.20;;;;;;;16.75;100.00;100264.16;4951868;28;20126;-71
2022/08/18 03:47:39;;;;;;;99.05;81.60;;;;;;;16.75;100.00;100259.69;4950652;28;20096;-71
2022/08/18 03:50:05;;;;;;;112.32;82.57;;;;;;;16.70;100.00;100258.34;4947445;28;20385;-71
2022/08/18 03:52:30;;;;;;;111.85;80.22;;;;;;;16.70;100.00;100264.50;4942749;28;20027;-71
2022/08/18 03:54:55;;;;;;;101.30;76.72;;;;;;;16.73;100.00;100264.25;4963521;28;20031;-71
2022/08/18 03:57:21;;;;;;;102.00;84.35;;;;;;;16.77;100.00;100272.84;4952123;28;20132;-71
2022/08/18 03:59:46;;;;;;;111.97;83.63;;;;;;;16.69;100.00;100262.00;4946419;28;20028;-71
2022/08/18 04:02:12;;;;;;;105.90;78.60;;;;;;;16.66;100.00;100254.28;4949115;28;20070;-71
2022/08/18 04:04:37;;;;;;;120.03;89.00;;;;;;;16.74;100.00;100267.75;5012692;28;20038;-71
2022/08/18 04:07:08;;;;;;;107.15;83.72;;;;;;;16.75;100.00;100264.16;4998825;28;20119;-71
2022/08/18 04:09:36;;;;;;;113.57;85.55;;;;;;;16.79;100.00;100271.78;4936463;28;20058;-71
2022/08/18 04:12:09;;;;;;;112.60;84.47;;;;;;;16.77;100.00;100262.22;4935696;28;20486;-71
2022/08/18 04:14:36;;;;;;;117.38;87.47;;;;;;;16.79;100.00;100276.22;4936958;28;20497;-71
2022/08/18 04:17:01;;;;;;;105.60;82.65;;;;;;;16.81;100.00;100279.59;4932429;28;20378;-71
2022/08/18 04:19:27;;;;;;;111.60;83.28;;;;;;;16.79;100.00;100273.59;4932471;28;20027;-71
2022/08/18 04:21:52;;;;;;;117.18;84.75;;;;;;;16.88;100.00;100285.28;4945720;28;20066;-71
2022/08/18 04:24:18;;;;;;;116.22;84.45;;;;;;;16.84;100.00;100287.31;4950656;28;20398;-71
2022/08/18 04:26:45;;;;;;;106.80;81.05;;;;;;;16.91;100.00;100293.84;4948962;29;20401;-71
2022/08/18 04:29:13;;;;;;;121.25;85.78;;;;;;;16.92;100.00;100298.19;4949849;29;20056;-71
2022/08/18 04:31:39;;;;;;;123.10;91.53;;;;;;;16.90;100.00;100294.78;4933724;28;20346;-71
2022/08/18 04:34:04;;;;;;;118.20;85.10;;;;;;;16.90;100.00;100305.41;4951438;28;20105;-71
2022/08/18 04:36:32;;;;;;;118.38;85.50;;;;;;;16.90;100.00;100305.41;4951535;28;20027;-71
2022/08/18 04:38:58;;;;;;;107.90;81.50;;;;;;;16.87;100.00;100292.38;4951340;28;20030;-71
2022/08/18 04:41:26;;;;;;;123.28;86.95;;;;;;;16.96;100.00;100304.97;4951433;28;20023;-71
2022/08/18 04:43:53;;;;;;;115.22;79.60;;;;;;;16.91;100.00;100285.88;4950526;28;20599;-71
2022/08/18 04:46:19;;;;;;;121.95;85.03;;;;;;;16.96;100.00;100299.66;4958038;28;20109;-71
2022/08/18 04:48:44;;;;;;;113.10;83.68;;;;;;;16.91;100.00;100285.88;4942037;28;20131;-71
2022/08/18 04:51:13;;;;;;;110.53;80.78;;;;;;;17.01;100.00;100308.09;5021107;28;20241;-71
2022/08/18 04:53:45;;;;;;;111.22;83.13;;;;;;;17.01;100.00;100313.41;4932843;28;20035;-71
2022/08/18 04:56:25;;;;;;;101.13;82.22;;;;;;;17.03;100.00;100306.19;4934510;28;20028;-71
2022/08/18 04:58:55;;;;;;;107.43;81.65;;;;;;;17.04;100.00;100313.16;4949507;28;20039;-71
2022/08/18 05:01:23;;;;;;;108.82;81.22;;;;;;;17.04;100.00;100315.81;4946375;28;20042;-71
2022/08/18 05:03:50;;;;;;;111.68;83.93;;;;;;;16.87;100.00;100279.13;4957539;28;20031;-72
2022/08/18 05:06:15;;;;;;;117.57;84.22;;;;;;;16.76;100.00;100260.56;4956130;28;20027;-72
2022/08/18 05:08:41;;;;;;;114.78;82.13;;;;;;;17.06;100.00;100313.06;4966222;28;20035;-72
2022/08/18 05:11:06;;;;;;;108.93;84.05;;;;;;;17.04;100.00;100318.47;4955418;28;20477;-72
2022/08/18 05:13:32;;;;;;;121.00;86.55;;;;;;;17.00;100.00;100313.53;4945172;28;20023;-72
2022/08/18 05:16:02;;;;;;;120.00;84.70;;;;;;;17.05;100.00;100324.63;4957599;28;20082;-72
2022/08/18 05:18:31;;;;;;;112.75;85.85;;;;;;;17.06;100.00;100337.78;4957150;28;20035;-72
2022/08/18 05:20:57;;;;;;;108.28;84.25;;;;;;;16.75;100.00;100277.44;4946014;28;20032;-72
2022/08/18 05:23:23;;;;;;;105.43;78.55;;;;;;;17.20;100.00;100340.19;4953525;28;20046;-72
2022/08/18 05:25:49;;;;;;;112.07;84.10;;;;;;;16.89;100.00;100273.69;4954937;28;20115;-71
2022/08/18 05:28:15;;;;;;;110.85;81.82;;;;;;;17.13;100.00;100316.91;4937905;28;20036;-71
2022/08/18 05:30:41;;;;;;;107.93;79.35;;;;;;;17.22;100.00;100332.13;4939381;28;20043;-71
2022/08/18 05:33:09;;;;;;;95.93;75.38;;;;;;;17.24;100.00;100346.09;4938818;28;20031;-71
2022/08/18 05:35:45;;;;;;;94.38;74.38;;;;;;;17.20;100.00;100328.75;4945348;28;20047;-71
2022/08/18 05:38:23;;;;;;;105.03;77.40;;;;;;;17.36;100.00;100335.38;5005405;28;20111;-71
2022/08/18 05:41:22;;;;;;;93.10;69.95;;;;;;;17.40;100.00;100329.81;4939695;28;20035;-71
2022/08/18 05:43:47;;;;;;;103.70;77.78;;;;;;;17.37;100.00;100331.75;4952183;28;20050;-71
2022/08/18 05:46:13;;;;;;;94.57;75.55;;;;;;;17.48;100.00;100340.66;4945377;28;20035;-72
2022/08/18 05:48:39;;;;;;;93.38;75.15;;;;;;;17.35;100.00;100312.44;4957554;28;20050;-72
2022/08/18 05:51:19;;;;;;;92.25;71.43;;;;;;;17.58;100.00;100333.69;4956870;28;20050;-72
2022/08/18 05:56:45;;;;;;;83.20;68.80;;;;;;;17.49;100.00;100340.56;4942682;28;20596;-72
2022/08/18 05:59:19;;;;;;;82.82;65.22;;;;;;;17.50;100.00;100346.72;4949920;28;20035;-72
2022/08/18 06:01:50;;;;;;;83.90;70.27;;;;;;;17.53;100.00;100333.19;4946437;28;20039;-72
2022/08/18 06:04:42;;;;;;;91.93;70.80;;;;;;;17.52;100.00;100340.31;4954262;28;20311;-72
2022/08/18 06:07:11;;;;;;;83.40;68.05;;;;;;;17.48;100.00;100336.19;4965155;28;20047;-72
2022/08/18 06:09:43;;;;;;;84.10;69.18;;;;;;;17.45;100.00;100338.25;4963488;28;20024;-72
2022/08/18 06:12:21;;;;;;;78.22;63.60;;;;;;;17.41;100.00;100334.16;4944000;28;20058;-72
2022/08/18 06:14:47;;;;;;;82.22;65.18;;;;;;;17.46;100.00;100335.50;4933504;28;20500;-72
2022/08/18 06:17:50;;;;;;;79.47;68.05;;;;;;;17.40;100.00;100324.50;4934776;28;20036;-72
2022/08/18 06:20:28;;;;;;;83.15;66.60;;;;;;;17.48;100.00;100338.00;4947332;28;20038;-73
2022/08/18 06:23:36;;;;;;;81.88;65.32;;;;;;;17.46;100.00;100332.84;4950874;28;20043;-72
2022/08/18 06:26:23;;;;;;;75.68;63.88;;;;;;;17.54;100.00;100342.88;4946119;28;20038;-72
2022/08/18 06:29:02;;;;;;;81.93;65.78;;;;;;;17.56;100.00;100341.78;4951396;28;20035;-72
2022/08/18 06:31:59;;;;;;;81.60;68.53;;;;;;;17.55;100.00;100355.16;4939679;28;20039;-72
2022/08/18 06:34:50;;;;;;;86.82;62.97;;;;;;;17.59;100.00;100356.63;4935343;28;20039;-72
2022/08/18 06:37:16;;;;;;;79.95;63.05;;;;;;;17.66;100.00;100363.16;4950159;28;20461;-72
2022/08/18 06:39:45;;;;;;;72.45;57.53;;;;;;;17.70;100.00;100361.94;4951850;28;20031;-72
2022/08/18 06:42:11;;;;;;;66.05;56.90;;;;;;;17.74;100.00;100363.41;4927963;28;20039;-72
2022/08/18 06:44:48;;;;;;;65.68;58.78;;;;;;;17.63;100.00;100368.72;4952991;28;20027;-72
2022/08/18 06:47:25;;;;;;;65.28;53.17;;;;;;;17.63;100.00;100369.56;4934077;28;20031;-72
2022/08/18 06:49:59;;;;;;;70.28;59.65;;;;;;;17.61;100.00;100370.63;4937222;28;20085;-72
2022/08/18 06:52:32;;;;;;;64.68;53.08;;;;;;;17.62;100.00;100373.19;4933160;28;20027;-72
2022/08/18 06:55:18;;;;;;;60.53;53.43;;;;;;;17.67;100.00;100375.50;4941733;28;20098;-72
2022/08/18 06:57:52;;;;;;;63.95;52.83;;;;;;;17.73;100.00;100364.34;4948310;28;20122;-73
2022/08/18 07:00:18;;;;;;;69.20;53.70;;;;;;;17.73;100.00;100370.53;4952787;29;20027;-71
2022/08/18 07:03:13;;;;;;;72.53;56.03;;;;;;;17.76;100.00;100366.78;4938394;28;20920;-72
2022/08/18 07:06:11;;;;;;;68.90;57.60;;;;;;;17.76;100.00;100369.44;4929628;28;20055;-71
2022/08/18 07:08:40;;;;;;;67.32;55.30;;;;;;;17.65;100.00;100364.13;4948803;28;20089;-72
2022/08/18 07:11:24;;;;;;;62.65;53.53;;;;;;;17.77;100.00;100377.28;4940640;28;20465;-72
2022/08/18 07:14:12;;;;;;;72.50;59.22;;;;;;;17.79;100.00;100374.50;4952487;28;20476;-72
2022/08/18 07:16:38;;;;;;;72.03;60.78;;;;;;;17.79;100.00;100369.19;4954807;28;20035;-72
2022/08/18 07:19:07;;;;;;;72.60;59.33;;;;;;;17.87;100.00;100372.06;4952164;29;20084;-72
2022/08/18 07:21:36;;;;;;;67.80;59.92;;;;;;;17.93;100.00;100360.09;4950407;28;20035;-72
2022/08/18 07:24:11;;;;;;;62.70;55.92;;;;;;;18.06;100.00;100361.63;4943481;28;20032;-71
2022/08/18 07:26:55;;;;;;;;;;;;;;;18.14;100.00;100356.53;4934594;28;20031;-72
2022/08/18 07:29:20;;;;;;;51.70;44.30;;;;;;;18.22;100.00;100348.75;4934100;28;21103;-72
2022/08/18 07:31:49;;;;;;;45.78;38.90;;;;;;;17.97;100.00;100297.72;4932247;28;20039;-72
2022/08/18 07:34:20;;;;;;;43.30;38.17;;;;;;;18.20;100.00;100320.59;5002258;28;20024;-71
2022/08/18 07:36:53;;;;;;;45.28;37.75;;;;;;;18.53;100.00;100349.72;5008561;28;20035;-71
2022/08/18 07:39:29;;;;;;;52.00;39.10;;;;;;;18.75;100.00;100351.44;4935103;28;20080;-72
2022/08/18 07:42:00;;;;;;;42.72;38.05;;;;;;;18.78;100.00;100353.84;4934857;29;20059;-72
2022/08/18 07:44:52;;;;;;;35.08;28.23;;;;;;;18.87;100.00;100353.06;4949930;28;20483;-72
2022/08/18 07:47:22;;;;;;;33.05;26.75;;;;;;;18.84;100.00;100350.66;4932950;28;20378;-72
2022/08/18 07:49:48;;;;;;;29.35;26.35;;;;;;;18.95;100.00;100358.59;4934784;28;20042;-72
2022/08/18 07:52:37;;;;;;;28.70;25.83;;;;;;;19.05;100.00;100367.47;4942932;28;20028;-72
2022/08/18 07:55:23;;;;;;;31.13;27.45;;;;;;;19.07;100.00;100370.84;4940805;28;20036;-72
2022/08/18 07:58:09;;;;;;;25.90;23.20;;;;;;;19.07;100.00;100376.16;4937157;28;20089;-71
2022/08/18 08:00:44;;;;;;;30.27;24.90;;;;;;;19.03;100.00;100374.72;4999380;28;20594;-72
2022/08/18 08:03:20;;;;;;;23.70;20.15;;;;;;;18.88;100.00;100379.56;4945729;28;20114;-71
2022/08/18 08:06:00;;;;;;;25.80;18.58;;;;;;;18.93;100.00;100384.47;4938199;28;20054;-71
2022/08/18 08:08:38;;;;;;;28.67;19.90;;;;;;;18.94;100.00;100386.19;4939822;28;20042;-71
2022/08/18 08:11:10;;;;;;;15.23;13.00;;;;;;;18.98;100.00;100384.94;4936389;28;20113;-71
2022/08/18 08:13:46;;;;;;;15.57;13.38;;;;;;;19.03;100.00;100380.06;4938560;28;20441;-72
2022/08/18 08:16:14;;;;;;;19.38;13.60;;;;;;;19.12;100.00;100379.28;4937974;28;20050;-71
2022/08/18 08:18:49;;;;;;;17.30;15.40;;;;;;;19.20;100.00;100376.78;4933958;28;20070;-71
2022/08/18 08:21:17;;;;;;;17.23;13.77;;;;;;;19.31;100.00;100379.38;4919454;28;20032;-70
2022/08/18 08:24:03;;;;;;;17.20;15.30;;;;;;;19.44;100.00;100384.50;4966124;28;20027;-71
2022/08/18 08:26:56;;;;;;;16.65;14.27;;;;;;;19.61;100.00;100385.69;4949049;28;20040;-70
2022/08/18 08:30:00;;;;;;;20.77;14.07;;;;;;;19.75;100.00;100380.00;4931715;28;20158;-70
2022/08/18 08:32:39;;;;;;;24.65;14.45;;;;;;;19.96;100.00;100395.94;4960248;28;20095;-70
2022/08/18 08:35:07;;;;;;;15.82;12.60;;;;;;;20.04;100.00;100394.25;4926776;28;20039;-70
2022/08/18 08:37:37;;;;;;;14.32;12.43;;;;;;;19.98;100.00;100386.78;4943679;28;20077;-70
2022/08/18 08:40:19;;;;;;;17.58;13.70;;;;;;;20.09;100.00;100386.69;4947767;28;20039;-71
2022/08/18 08:42:57;;;;;;;14.77;12.20;;;;;;;20.28;100.00;100391.22;4950767;28;20110;-71
2022/08/18 08:45:26;;;;;;;16.15;12.63;;;;;;;20.32;100.00;100393.50;4939814;28;20032;-71
2022/08/18 08:48:20;;;;;;;15.23;12.10;;;;;;;20.35;100.00;100393.22;4937655;28;20035;-71
2022/08/18 08:50:54;;;;;;;12.93;11.40;;;;;;;20.48;100.00;100402.78;4935673;28;20035;-71
2022/08/18 08:53:29;;;;;;;13.38;11.70;;;;;;;20.61;100.00;100381.97;4935468;28;20482;-71
2022/08/18 08:55:57;;;;;;;14.65;11.85;;;;;;;20.99;100.00;100392.59;5016624;28;20028;-70
2022/08/18 08:58:30;;;;;;;12.65;10.02;;;;;;;21.25;100.00;100391.06;4965790;28;20389;-70
2022/08/18 09:00:56;;;;;;;10.80;7.27;;;;;;;21.24;100.00;100386.69;4947937;29;20048;-71
2022/08/18 09:03:40;;;;;;;12.20;10.18;;;;;;;20.90;100.00;100364.09;5005487;28;20159;-70
2022/08/18 09:06:25;;;;;;;13.13;9.98;;;;;;;21.00;100.00;100396.97;4965855;28;20048;-70
2022/08/18 09:09:25;;;;;;;11.40;10.20;;;;;;;20.97;100.00;100397.25;4938929;28;20071;-71
2022/08/18 09:12:16;;;;;;;15.07;11.52;;;;;;;21.06;100.00;100383.03;4933077;28;20054;-71
2022/08/18 09:15:02;;;;;;;10.48;9.38;;;;;;;21.12;100.00;100374.50;4933322;28;20051;-71
2022/08/18 09:18:13;;;;;;;10.85;9.25;;;;;;;21.33;100.00;100369.75;4943587;28;20028;-70
2022/08/18 09:20:39;;;;;;;17.33;10.38;;;;;;;21.44;100.00;100376.75;4934893;28;20051;-71
2022/08/18 09:23:08;;;;;;;16.77;9.68;;;;;;;21.57;100.00;100376.41;4945704;28;20031;-70
2022/08/18 09:25:36;;;;;;;14.23;10.10;;;;;;;21.63;100.00;100375.84;5004560;28;20081;-71
2022/08/18 09:28:11;;;;;;;12.05;9.25;;;;;;;21.47;100.00;100375.63;4940152;28;20076;-72
2022/08/18 09:31:05;;;;;;;13.70;10.75;;;;;;;21.28;100.00;100372.03;4938715;28;20541;-71
2022/08/18 09:33:39;;;;;;;11.07;9.68;;;;;;;21.22;100.00;100367.28;4938510;28;20406;-71
2022/08/18 09:36:09;;;;;;;12.13;10.82;;;;;;;21.19;100.00;100364.06;4933956;28;20024;-71
2022/08/18 09:41:32;;;;;;;17.52;9.43;;;;;;;21.31;100.00;100363.72;4948577;28;20398;-70
2022/08/18 09:44:12;;;;;;;13.07;9.90;;;;;;;20.92;100.00;100322.88;5001914;28;20044;-71
2022/08/18 09:46:43;;;;;;;14.82;11.52;;;;;;;21.22;100.00;100371.78;4953668;28;20042;-71
2022/08/18 09:49:29;;;;;;;16.75;11.52;;;;;;;21.12;100.00;100363.81;4941008;28;20046;-71
2022/08/18 09:51:58;;;;;;;14.07;10.38;;;;;;;21.08;100.00;100359.69;4934306;28;20101;-70
2022/08/18 09:54:29;;;;;;;13.07;11.75;;;;;;;20.87;100.00;100335.00;4943210;28;20453;-71
2022/08/18 09:57:16;;;;;;;17.20;11.80;;;;;;;21.17;100.00;100366.88;4953563;28;20037;-71
2022/08/18 09:59:44;;;;;;;12.32;10.88;;;;;;;21.40;100.00;100370.00;4952457;28;20035;-70
2022/08/18 10:02:13;;;;;;;12.32;9.65;;;;;;;21.64;100.00;100369.50;4953377;28;20039;-70
2022/08/18 10:04:50;;;;;;;11.48;8.75;;;;;;;21.94;100.00;100377.25;4966389;28;20019;-71
2022/08/18 10:07:28;;;;;;;11.77;9.32;;;;;;;22.23;100.00;100367.19;4940021;28;20035;-70
2022/08/18 10:10:07;;;;;;;10.43;9.38;;;;;;;22.27;100.00;100349.00;4932145;28;20157;-71
2022/08/18 10:12:41;;;;;;;16.73;10.57;;;;;;;22.38;100.00;100362.13;4922293;28;20117;-70
2022/08/18 10:15:30;;;;;;;10.07;8.20;;;;;;;22.30;100.00;100360.25;4937020;28;20039;-70
2022/08/18 10:18:02;;;;;;;8.80;7.90;;;;;;;22.27;100.00;100365.88;5001596;28;20127;-70
2022/08/18 10:21:16;;;;;;;10.10;8.00;;;;;;;22.51;100.00;100356.41;4953195;28;20039;-70
2022/08/18 10:23:57;;;;;;;10.90;7.93;;;;;;;22.63;100.00;100360.53;4936485;28;20034;-70
2022/08/18 10:26:28;;;;;;;11.10;7.97;;;;;;;22.49;100.00;100361.06;4947698;28;20043;-70
2022/08/18 10:28:55;;;;;;;11.13;7.30;;;;;;;22.40;100.00;100366.38;4936281;28;20036;-70
2022/08/18 10:31:21;;;;;;;8.05;6.93;;;;;;;22.31;100.00;100359.22;4937222;28;20539;-70
2022/08/18 10:34:09;;;;;;;9.23;8.00;;;;;;;22.35;100.00;100365.97;4914041;28;20039;-70
2022/08/18 10:36:45;;;;;;;9.75;8.00;;;;;;;22.30;100.00;100354.03;4951416;28;20074;-71
2022/08/18 10:39:17;;;;;;;11.18;8.18;;;;;;;22.13;100.00;100353.03;4925702;29;20038;-72
2022/08/18 10:41:59;;;;;;;12.20;8.45;;;;;;;22.02;100.00;100342.53;4947902;28;20070;-71
2022/08/18 10:44:26;;;;;;;11.98;8.77;;;;;;;22.10;100.00;100348.00;4920087;28;20073;-71
2022/08/18 10:46:52;;;;;;;15.45;8.15;;;;;;;22.38;100.00;100343.38;4943722;28;20027;-70
2022/08/18 10:49:24;;;;;;;10.82;6.97;;;;;;;22.36;100.00;100337.34;4939575;28;20023;-70
2022/08/18 10:52:09;;;;;;;7.50;5.65;;;;;;;22.35;100.00;100349.91;4933301;28;20474;-70
2022/08/18 10:54:43;;;;;;;14.68;7.07;;;;;;;22.27;100.00;100344.47;4951120;28;20142;-70
2022/08/18 10:57:44;;;;;;;7.78;6.25;;;;;;;22.32;100.00;100344.84;4953175;28;20104;-70
2022/08/18 11:00:12;;;;;;;6.82;5.60;;;;;;;22.47;100.00;100329.09;4934865;28;20130;-71
2022/08/18 11:03:08;;;;;;;7.05;6.03;;;;;;;22.68;100.00;100332.28;4952192;28;20038;-71
2022/08/18 11:05:33;;;;;;;9.35;6.68;;;;;;;22.94;100.00;100316.25;4944681;28;20031;-70
2022/08/18 11:08:04;;;;;;;8.63;6.40;;;;;;;23.22;100.00;100319.56;4943474;28;20020;-72
2022/08/18 11:10:41;;;;;;;11.13;7.00;;;;;;;23.30;100.00;100312.41;4945313;28;20110;-71
2022/08/18 11:13:23;;;;;;;11.43;8.13;;;;;;;23.44;100.00;100329.78;4937741;28;20519;-70
2022/08/18 11:16:17;;;;;;;10.95;7.63;;;;;;;23.30;100.00;100341.91;4934598;28;20511;-70
2022/08/18 11:18:44;;;;;;;7.85;7.05;;;;;;;23.18;100.00;100340.53;4951844;28;20089;-70
2022/08/18 11:21:22;;;;;;;8.25;7.18;;;;;;;23.21;100.00;100340.19;4952703;28;20462;-70
2022/08/18 11:24:19;;;;;;;7.43;6.10;;;;;;;23.36;100.00;100338.59;4951586;28;20105;-69
2022/08/18 11:26:51;;;;;;;9.40;6.30;;;;;;;23.48;100.00;100335.66;4943076;28;20039;-70
2022/08/18 11:29:25;;;;;;;16.30;7.13;;;;;;;23.44;100.00;100328.94;4938283;28;20131;-71
2022/08/18 11:31:59;;;;;;;12.30;7.35;;;;;;;23.30;100.00;100331.19;4929436;28;20039;-70
2022/08/18 11:34:33;;;;;;;9.75;6.10;;;;;;;23.29;100.00;100325.97;4926990;28;20035;-70
2022/08/18 11:36:59;;;;;;;;;;;;;;;23.35;100.00;100333.41;4942062;28;20039;-70